sensor_id;sensor_type;location;lat;lon;timestamp;temperature;humidity
15386;DHT22;7791;47.246;9.648;2024-02-16T00:02:31;6.80;99.90
15386;DHT22;7791;47.246;9.648;2024-02-16T00:05:05;6.90;99.90
15386;DHT22;7791;47.246;9.648;2024-02-16T00:07:42;7.00;99.90
15386;DHT22;7791;47.246;9.648;2024-02-16T00:10:21;7.10;99.90
15386;DHT22;7791;47.246;9.648;2024-02-16T00:13:03;7.20;99.90
15386;DHT22;7791;47.246;9.648;2024-02-16T00:15:46;7.30;99.90
15386;DHT22;7791;47.246;9.648;2024-02-16T00:18:27;7.30;99.90
15386;DHT22;7791;47.246;9.648;2024-02-16T00:21:06;7.30;99.90
15386;DHT22;7791;47.246;9.648;2024-02-16T00:23:46;7.30;99.90
15386;DHT22;7791;47.246;9.648;2024-02-16T00:26:30;7.40;99.90
15386;DHT22;7791;47.246;9.648;2024-02-16T00:29:09;7.40;99.90
15386;DHT22;7791;47.246;9.648;2024-02-16T00:34:41;7.30;99.90
15386;DHT22;7791;47.246;9.648;2024-02-16T00:37:20;7.30;99.90
15386;DHT22;7791;47.246;9.648;2024-02-16T00:39:59;7.20;99.90
15386;DHT22;7791;47.246;9.648;2024-02-16T00:42:47;7.00;99.90
15386;DHT22;7791;47.246;9.648;2024-02-16T00:45:37;7.00;99.90
15386;DHT22;7791;47.246;9.648;2024-02-16T00:48:22;7.10;99.90
15386;DHT22;7791;47.246;9.648;2024-02-16T00:51:14;7.20;99.90
15386;DHT22;7791;47.246;9.648;2024-02-16T00:57:07;7.30;99.90
15386;DHT22;7791;47.246;9.648;2024-02-16T00:59:54;7.30;99.90
15386;DHT22;7791;47.246;9.648;2024-02-16T01:02:38;7.20;99.90
15386;DHT22;7791;47.246;9.648;2024-02-16T01:05:17;7.20;99.90
15386;DHT22;7791;47.246;9.648;2024-02-16T01:10:52;7.30;99.90
15386;DHT22;7791;47.246;9.648;2024-02-16T01:13:24;7.30;99.90
15386;DHT22;7791;47.246;9.648;2024-02-16T01:16:08;7.30;99.90
15386;DHT22;7791;47.246;9.648;2024-02-16T01:18:42;7.30;99.90
15386;DHT22;7791;47.246;9.648;2024-02-16T01:21:26;7.30;99.90
15386;DHT22;7791;47.246;9.648;2024-02-16T01:24:14;7.20;99.90
15386;DHT22;7791;47.246;9.648;2024-02-16T01:26:50;7.20;99.90
15386;DHT22;7791;47.246;9.648;2024-02-16T01:29:26;7.10;99.90
15386;DHT22;7791;47.246;9.648;2024-02-16T01:32:20;7.10;99.90
15386;DHT22;7791;47.246;9.648;2024-02-16T01:35:02;7.00;99.90
15386;DHT22;7791;47.246;9.648;2024-02-16T01:37:47;6.90;99.90
15386;DHT22;7791;47.246;9.648;2024-02-16T01:40:23;6.90;99.90
15386;DHT22;7791;47.246;9.648;2024-02-16T01:43:03;6.80;99.90
15386;DHT22;7791;47.246;9.648;2024-02-16T01:45:35;6.80;99.90
15386;DHT22;7791;47.246;9.648;2024-02-16T01:48:28;6.70;99.90
15386;DHT22;7791;47.246;9.648;2024-02-16T01:51:13;6.60;99.90
15386;DHT22;7791;47.246;9.648;2024-02-16T01:53:53;6.70;99.90
15386;DHT22;7791;47.246;9.648;2024-02-16T01:56:32;6.70;99.90
15386;DHT22;7791;47.246;9.648;2024-02-16T01:59:18;6.70;99.90
15386;DHT22;7791;47.246;9.648;2024-02-16T02:02:03;6.60;99.90
15386;DHT22;7791;47.246;9.648;2024-02-16T02:04:42;6.30;99.90
15386;DHT22;7791;47.246;9.648;2024-02-16T02:07:33;6.20;99.90
15386;DHT22;7791;47.246;9.648;2024-02-16T02:13:13;6.20;99.90
15386;DHT22;7791;47.246;9.648;2024-02-16T02:18:48;6.00;99.90
15386;DHT22;7791;47.246;9.648;2024-02-16T02:21:33;6.00;99.90
15386;DHT22;7791;47.246;9.648;2024-02-16T02:24:15;6.00;99.90
15386;DHT22;7791;47.246;9.648;2024-02-16T02:26:47;6.00;99.90
15386;DHT22;7791;47.246;9.648;2024-02-16T02:29:22;5.90;99.90
15386;DHT22;7791;47.246;9.648;2024-02-16T02:31:57;5.80;99.90
15386;DHT22;7791;47.246;9.648;2024-02-16T02:34:49;5.70;99.90
15386;DHT22;7791;47.246;9.648;2024-02-16T02:40:19;5.70;99.90
15386;DHT22;7791;47.246;9.648;2024-02-16T02:42:54;5.50;99.90
15386;DHT22;7791;47.246;9.648;2024-02-16T02:48:43;5.40;99.90
15386;DHT22;7791;47.246;9.648;2024-02-16T02:51:32;5.40;99.90
15386;DHT22;7791;47.246;9.648;2024-02-16T02:54:11;5.40;99.90
15386;DHT22;7791;47.246;9.648;2024-02-16T02:56:59;5.40;99.90
15386;DHT22;7791;47.246;9.648;2024-02-16T03:02:40;5.20;99.90
15386;DHT22;7791;47.246;9.648;2024-02-16T03:08:17;5.40;99.90
15386;DHT22;7791;47.246;9.648;2024-02-16T03:10:57;5.40;99.90
15386;DHT22;7791;47.246;9.648;2024-02-16T03:13:33;5.50;99.90
15386;DHT22;7791;47.246;9.648;2024-02-16T03:16:16;5.60;99.90
15386;DHT22;7791;47.246;9.648;2024-02-16T03:18:52;5.60;99.90
15386;DHT22;7791;47.246;9.648;2024-02-16T03:21:31;5.60;99.90
15386;DHT22;7791;47.246;9.648;2024-02-16T03:24:07;5.70;99.90
15386;DHT22;7791;47.246;9.648;2024-02-16T03:26:52;5.70;99.90
15386;DHT22;7791;47.246;9.648;2024-02-16T03:29:47;5.70;99.90
15386;DHT22;7791;47.246;9.648;2024-02-16T03:32:32;5.80;99.90
15386;DHT22;7791;47.246;9.648;2024-02-16T03:38:02;5.80;99.90
15386;DHT22;7791;47.246;9.648;2024-02-16T03:40:42;5.80;99.90
15386;DHT22;7791;47.246;9.648;2024-02-16T03:43:17;5.80;99.90
15386;DHT22;7791;47.246;9.648;2024-02-16T03:45:58;5.80;99.90
15386;DHT22;7791;47.246;9.648;2024-02-16T03:51:22;5.60;99.90
15386;DHT22;7791;47.246;9.648;2024-02-16T03:54:05;5.60;99.90
15386;DHT22;7791;47.246;9.648;2024-02-16T03:56:49;5.70;99.90
15386;DHT22;7791;47.246;9.648;2024-02-16T04:02:26;5.70;99.90
15386;DHT22;7791;47.246;9.648;2024-02-16T04:05:39;5.60;99.90
15386;DHT22;7791;47.246;9.648;2024-02-16T04:08:12;5.60;99.90
15386;DHT22;7791;47.246;9.648;2024-02-16T04:10:47;5.50;99.90
15386;DHT22;7791;47.246;9.648;2024-02-16T04:13:39;5.40;99.90
15386;DHT22;7791;47.246;9.648;2024-02-16T04:16:16;5.40;99.90
15386;DHT22;7791;47.246;9.648;2024-02-16T04:21:59;5.30;99.90
15386;DHT22;7791;47.246;9.648;2024-02-16T04:24:51;5.20;99.90
15386;DHT22;7791;47.246;9.648;2024-02-16T04:27:26;5.00;99.90
15386;DHT22;7791;47.246;9.648;2024-02-16T04:30:11;4.90;99.90
15386;DHT22;7791;47.246;9.648;2024-02-16T04:32:46;4.80;99.90
15386;DHT22;7791;47.246;9.648;2024-02-16T04:35:24;4.80;99.90
15386;DHT22;7791;47.246;9.648;2024-02-16T04:41:04;4.60;99.90
15386;DHT22;7791;47.246;9.648;2024-02-16T04:43:43;4.60;99.90
15386;DHT22;7791;47.246;9.648;2024-02-16T04:46:19;4.60;99.90
15386;DHT22;7791;47.246;9.648;2024-02-16T04:49:29;4.60;99.90
15386;DHT22;7791;47.246;9.648;2024-02-16T04:54:56;4.70;99.90
15386;DHT22;7791;47.246;9.648;2024-02-16T05:03:16;4.50;99.90
15386;DHT22;7791;47.246;9.648;2024-02-16T05:06:01;4.50;99.90
15386;DHT22;7791;47.246;9.648;2024-02-16T05:08:56;4.40;99.90
15386;DHT22;7791;47.246;9.648;2024-02-16T05:11:38;4.30;99.90
15386;DHT22;7791;47.246;9.648;2024-02-16T05:14:35;4.20;99.90
15386;DHT22;7791;47.246;9.648;2024-02-16T05:17:16;4.30;99.90
15386;DHT22;7791;47.246;9.648;2024-02-16T05:19:57;4.30;99.90
15386;DHT22;7791;47.246;9.648;2024-02-16T05:22:48;4.20;99.90
15386;DHT22;7791;47.246;9.648;2024-02-16T05:25:23;4.10;99.90
15386;DHT22;7791;47.246;9.648;2024-02-16T05:31:15;3.90;99.90
15386;DHT22;7791;47.246;9.648;2024-02-16T05:33:58;3.90;99.90
15386;DHT22;7791;47.246;9.648;2024-02-16T05:36:27;3.70;99.90
15386;DHT22;7791;47.246;9.648;2024-02-16T05:39:07;3.70;99.90
15386;DHT22;7791;47.246;9.648;2024-02-16T05:44:25;3.60;99.90
15386;DHT22;7791;47.246;9.648;2024-02-16T05:47:01;3.60;99.90
15386;DHT22;7791;47.246;9.648;2024-02-16T05:49:38;3.60;99.90
15386;DHT22;7791;47.246;9.648;2024-02-16T05:52:10;3.50;99.90
15386;DHT22;7791;47.246;9.648;2024-02-16T05:54:48;3.40;99.90
15386;DHT22;7791;47.246;9.648;2024-02-16T05:57:23;3.50;99.90
15386;DHT22;7791;47.246;9.648;2024-02-16T06:00:11;3.50;99.90
15386;DHT22;7791;47.246;9.648;2024-02-16T06:02:55;3.50;99.90
15386;DHT22;7791;47.246;9.648;2024-02-16T06:05:45;3.50;99.90
15386;DHT22;7791;47.246;9.648;2024-02-16T06:08:17;3.60;99.90
15386;DHT22;7791;47.246;9.648;2024-02-16T06:10:50;3.60;99.90
15386;DHT22;7791;47.246;9.648;2024-02-16T06:16:15;3.90;99.90
15386;DHT22;7791;47.246;9.648;2024-02-16T06:19:10;3.90;99.90
15386;DHT22;7791;47.246;9.648;2024-02-16T06:21:49;4.00;99.90
15386;DHT22;7791;47.246;9.648;2024-02-16T06:24:21;4.00;99.90
15386;DHT22;7791;47.246;9.648;2024-02-16T06:27:18;3.80;99.90
15386;DHT22;7791;47.246;9.648;2024-02-16T06:29:50;3.70;99.90
15386;DHT22;7791;47.246;9.648;2024-02-16T06:38:10;3.60;99.90
15386;DHT22;7791;47.246;9.648;2024-02-16T06:40:45;3.60;99.90
15386;DHT22;7791;47.246;9.648;2024-02-16T06:43:31;3.50;99.90
15386;DHT22;7791;47.246;9.648;2024-02-16T06:46:16;3.50;99.90
15386;DHT22;7791;47.246;9.648;2024-02-16T06:51:57;3.60;99.90
15386;DHT22;7791;47.246;9.648;2024-02-16T06:54:35;3.60;99.90
15386;DHT22;7791;47.246;9.648;2024-02-16T07:00:10;3.70;99.90
15386;DHT22;7791;47.246;9.648;2024-02-16T07:02:58;3.80;99.90
15386;DHT22;7791;47.246;9.648;2024-02-16T07:08:41;4.10;99.90
15386;DHT22;7791;47.246;9.648;2024-02-16T07:11:29;4.10;99.90
15386;DHT22;7791;47.246;9.648;2024-02-16T07:14:08;4.30;99.90
15386;DHT22;7791;47.246;9.648;2024-02-16T07:16:59;4.40;99.90
15386;DHT22;7791;47.246;9.648;2024-02-16T07:19:41;4.50;99.90
15386;DHT22;7791;47.246;9.648;2024-02-16T07:22:33;4.60;99.90
15386;DHT22;7791;47.246;9.648;2024-02-16T07:25:19;4.60;99.90
15386;DHT22;7791;47.246;9.648;2024-02-16T07:31:03;5.00;99.90
15386;DHT22;7791;47.246;9.648;2024-02-16T07:33:52;5.20;99.90
15386;DHT22;7791;47.246;9.648;2024-02-16T07:36:28;5.20;99.90
15386;DHT22;7791;47.246;9.648;2024-02-16T07:39:08;5.30;99.90
15386;DHT22;7791;47.246;9.648;2024-02-16T07:42:03;5.60;99.90
15386;DHT22;7791;47.246;9.648;2024-02-16T07:44:40;6.00;99.90
15386;DHT22;7791;47.246;9.648;2024-02-16T07:47:12;6.20;99.90
15386;DHT22;7791;47.246;9.648;2024-02-16T07:49:48;6.30;99.90
15386;DHT22;7791;47.246;9.648;2024-02-16T07:52:49;6.40;99.90
15386;DHT22;7791;47.246;9.648;2024-02-16T07:55:21;6.60;99.90
15386;DHT22;7791;47.246;9.648;2024-02-16T07:58:13;6.80;99.90
15386;DHT22;7791;47.246;9.648;2024-02-16T08:03:44;8.00;99.90
15386;DHT22;7791;47.246;9.648;2024-02-16T08:06:26;8.40;99.90
15386;DHT22;7791;47.246;9.648;2024-02-16T08:09:06;8.40;99.90
15386;DHT22;7791;47.246;9.648;2024-02-16T08:17:26;9.90;99.90
15386;DHT22;7791;47.246;9.648;2024-02-16T08:20:11;11.00;99.90
15386;DHT22;7791;47.246;9.648;2024-02-16T08:22:50;11.90;99.90
15386;DHT22;7791;47.246;9.648;2024-02-16T08:25:32;12.80;99.90
15386;DHT22;7791;47.246;9.648;2024-02-16T08:28:07;13.60;99.90
15386;DHT22;7791;47.246;9.648;2024-02-16T08:33:29;14.30;99.90
15386;DHT22;7791;47.246;9.648;2024-02-16T08:39:07;14.70;99.90
15386;DHT22;7791;47.246;9.648;2024-02-16T08:41:54;15.10;99.90
15386;DHT22;7791;47.246;9.648;2024-02-16T08:44:32;15.20;99.90
15386;DHT22;7791;47.246;9.648;2024-02-16T08:47:11;15.80;99.90
15386;DHT22;7791;47.246;9.648;2024-02-16T08:50:11;16.20;99.90
15386;DHT22;7791;47.246;9.648;2024-02-16T08:52:44;14.80;99.90
15386;DHT22;7791;47.246;9.648;2024-02-16T08:55:14;14.00;99.90
15386;DHT22;7791;47.246;9.648;2024-02-16T08:58:16;13.60;99.90
15386;DHT22;7791;47.246;9.648;2024-02-16T09:01:07;13.70;99.90
15386;DHT22;7791;47.246;9.648;2024-02-16T09:03:56;13.90;99.90
15386;DHT22;7791;47.246;9.648;2024-02-16T09:06:39;13.90;99.90
15386;DHT22;7791;47.246;9.648;2024-02-16T09:09:22;14.30;99.90
15386;DHT22;7791;47.246;9.648;2024-02-16T09:12:05;14.60;99.90
15386;DHT22;7791;47.246;9.648;2024-02-16T09:15:09;15.30;99.90
15386;DHT22;7791;47.246;9.648;2024-02-16T09:17:49;16.20;99.90
15386;DHT22;7791;47.246;9.648;2024-02-16T09:20:43;17.30;99.90
15386;DHT22;7791;47.246;9.648;2024-02-16T09:23:31;18.80;98.90
15386;DHT22;7791;47.246;9.648;2024-02-16T09:26:10;20.10;96.60
15386;DHT22;7791;47.246;9.648;2024-02-16T09:28:48;21.20;94.80
15386;DHT22;7791;47.246;9.648;2024-02-16T09:31:27;22.30;92.20
15386;DHT22;7791;47.246;9.648;2024-02-16T09:34:20;23.40;90.50
15386;DHT22;7791;47.246;9.648;2024-02-16T09:37:18;24.50;85.80
15386;DHT22;7791;47.246;9.648;2024-02-16T09:39:53;25.00;83.90
15386;DHT22;7791;47.246;9.648;2024-02-16T09:42:35;24.90;80.30
15386;DHT22;7791;47.246;9.648;2024-02-16T09:45:14;25.40;78.20
15386;DHT22;7791;47.246;9.648;2024-02-16T09:47:55;25.90;76.00
15386;DHT22;7791;47.246;9.648;2024-02-16T09:50:31;26.30;73.90
15386;DHT22;7791;47.246;9.648;2024-02-16T09:53:10;26.60;73.10
15386;DHT22;7791;47.246;9.648;2024-02-16T09:55:56;26.30;67.60
15386;DHT22;7791;47.246;9.648;2024-02-16T09:58:37;26.50;67.30
15386;DHT22;7791;47.246;9.648;2024-02-16T10:01:28;26.70;66.40
15386;DHT22;7791;47.246;9.648;2024-02-16T10:04:31;26.50;66.80
15386;DHT22;7791;47.246;9.648;2024-02-16T10:07:15;26.60;66.10
15386;DHT22;7791;47.246;9.648;2024-02-16T10:10:01;26.80;66.60
15386;DHT22;7791;47.246;9.648;2024-02-16T10:12:50;27.00;64.60
15386;DHT22;7791;47.246;9.648;2024-02-16T10:21:03;27.50;64.50
15386;DHT22;7791;47.246;9.648;2024-02-16T10:26:42;28.20;61.70
15386;DHT22;7791;47.246;9.648;2024-02-16T10:29:25;28.20;61.50
15386;DHT22;7791;47.246;9.648;2024-02-16T10:32:05;28.60;60.20
15386;DHT22;7791;47.246;9.648;2024-02-16T10:34:49;28.60;61.30
15386;DHT22;7791;47.246;9.648;2024-02-16T10:37:26;29.20;61.50
15386;DHT22;7791;47.246;9.648;2024-02-16T10:40:08;29.70;59.50
15386;DHT22;7791;47.246;9.648;2024-02-16T10:42:54;30.10;57.70
15386;DHT22;7791;47.246;9.648;2024-02-16T10:45:31;29.50;57.80
15386;DHT22;7791;47.246;9.648;2024-02-16T10:48:07;26.80;62.80
15386;DHT22;7791;47.246;9.648;2024-02-16T10:51:24;24.80;66.60
15386;DHT22;7791;47.246;9.648;2024-02-16T10:53:46;23.10;70.50
15386;DHT22;7791;47.246;9.648;2024-02-16T10:56:26;22.20;70.10
15386;DHT22;7791;47.246;9.648;2024-02-16T10:59:05;21.30;73.80
15386;DHT22;7791;47.246;9.648;2024-02-16T11:01:58;20.20;75.50
15386;DHT22;7791;47.246;9.648;2024-02-16T11:04:53;20.10;77.10
15386;DHT22;7791;47.246;9.648;2024-02-16T11:07:36;20.40;76.40
15386;DHT22;7791;47.246;9.648;2024-02-16T11:10:28;20.90;76.80
15386;DHT22;7791;47.246;9.648;2024-02-16T11:13:11;21.30;76.40
15386;DHT22;7791;47.246;9.648;2024-02-16T11:18:41;21.80;75.00
15386;DHT22;7791;47.246;9.648;2024-02-16T11:21:20;21.90;70.70
15386;DHT22;7791;47.246;9.648;2024-02-16T11:26:49;20.70;76.90
15386;DHT22;7791;47.246;9.648;2024-02-16T11:29:34;20.10;76.90
15386;DHT22;7791;47.246;9.648;2024-02-16T11:32:07;19.60;79.00
15386;DHT22;7791;47.246;9.648;2024-02-16T11:37:40;18.50;83.90
15386;DHT22;7791;47.246;9.648;2024-02-16T11:40:54;18.00;83.70
15386;DHT22;7791;47.246;9.648;2024-02-16T11:43:58;18.00;85.10
15386;DHT22;7791;47.246;9.648;2024-02-16T11:46:36;18.10;85.40
15386;DHT22;7791;47.246;9.648;2024-02-16T11:49:22;17.70;85.20
15386;DHT22;7791;47.246;9.648;2024-02-16T11:51:59;17.60;87.20
15386;DHT22;7791;47.246;9.648;2024-02-16T11:54:34;17.40;87.70
15386;DHT22;7791;47.246;9.648;2024-02-16T11:57:23;17.30;86.20
15386;DHT22;7791;47.246;9.648;2024-02-16T12:00:17;17.40;87.60
15386;DHT22;7791;47.246;9.648;2024-02-16T12:03:00;17.30;88.20
15386;DHT22;7791;47.246;9.648;2024-02-16T12:05:46;17.20;88.00
15386;DHT22;7791;47.246;9.648;2024-02-16T12:08:35;17.30;87.60
15386;DHT22;7791;47.246;9.648;2024-02-16T12:11:24;17.30;86.30
15386;DHT22;7791;47.246;9.648;2024-02-16T12:14:13;17.30;85.50
15386;DHT22;7791;47.246;9.648;2024-02-16T12:16:55;17.50;86.50
15386;DHT22;7791;47.246;9.648;2024-02-16T12:19:42;17.50;87.60
15386;DHT22;7791;47.246;9.648;2024-02-16T12:22:25;17.60;87.20
15386;DHT22;7791;47.246;9.648;2024-02-16T12:25:04;18.00;85.20
15386;DHT22;7791;47.246;9.648;2024-02-16T12:27:36;18.30;87.10
15386;DHT22;7791;47.246;9.648;2024-02-16T12:30:21;18.60;86.30
15386;DHT22;7791;47.246;9.648;2024-02-16T12:33:18;19.40;83.80
15386;DHT22;7791;47.246;9.648;2024-02-16T12:39:06;19.90;79.50
15386;DHT22;7791;47.246;9.648;2024-02-16T12:41:53;19.70;82.70
15386;DHT22;7791;47.246;9.648;2024-02-16T12:47:10;19.20;84.50
15386;DHT22;7791;47.246;9.648;2024-02-16T12:50:06;18.60;87.30
15386;DHT22;7791;47.246;9.648;2024-02-16T12:52:57;18.20;87.00
15386;DHT22;7791;47.246;9.648;2024-02-16T12:55:51;18.10;88.10
15386;DHT22;7791;47.246;9.648;2024-02-16T12:58:33;18.00;88.30
15386;DHT22;7791;47.246;9.648;2024-02-16T13:01:19;18.10;86.40
15386;DHT22;7791;47.246;9.648;2024-02-16T13:03:58;17.90;85.80
15386;DHT22;7791;47.246;9.648;2024-02-16T13:06:27;17.80;87.50
15386;DHT22;7791;47.246;9.648;2024-02-16T13:09:08;17.60;87.00
15386;DHT22;7791;47.246;9.648;2024-02-16T13:14:38;17.90;90.20
15386;DHT22;7791;47.246;9.648;2024-02-16T13:17:16;18.40;88.20
15386;DHT22;7791;47.246;9.648;2024-02-16T13:19:57;18.60;88.40
15386;DHT22;7791;47.246;9.648;2024-02-16T13:22:35;18.70;86.90
15386;DHT22;7791;47.246;9.648;2024-02-16T13:25:09;19.30;87.00
15386;DHT22;7791;47.246;9.648;2024-02-16T13:30:48;20.00;84.70
15386;DHT22;7791;47.246;9.648;2024-02-16T13:33:15;20.20;83.80
15386;DHT22;7791;47.246;9.648;2024-02-16T13:35:57;20.60;81.70
15386;DHT22;7791;47.246;9.648;2024-02-16T13:38:39;21.40;82.50
15386;DHT22;7791;47.246;9.648;2024-02-16T13:41:15;21.60;80.40
15386;DHT22;7791;47.246;9.648;2024-02-16T13:43:45;21.50;81.00
15386;DHT22;7791;47.246;9.648;2024-02-16T13:49:09;21.30;79.30
15386;DHT22;7791;47.246;9.648;2024-02-16T13:51:45;21.30;80.80
15386;DHT22;7791;47.246;9.648;2024-02-16T13:54:29;20.80;79.30
15386;DHT22;7791;47.246;9.648;2024-02-16T13:57:08;20.70;80.50
15386;DHT22;7791;47.246;9.648;2024-02-16T13:59:43;20.30;81.00
15386;DHT22;7791;47.246;9.648;2024-02-16T14:05:31;20.60;82.10
15386;DHT22;7791;47.246;9.648;2024-02-16T14:08:16;20.50;82.50
15386;DHT22;7791;47.246;9.648;2024-02-16T14:10:58;20.50;83.00
15386;DHT22;7791;47.246;9.648;2024-02-16T14:16:37;20.40;85.10
15386;DHT22;7791;47.246;9.648;2024-02-16T14:22:00;20.00;87.60
15386;DHT22;7791;47.246;9.648;2024-02-16T14:24:35;19.90;87.40
15386;DHT22;7791;47.246;9.648;2024-02-16T14:27:10;19.90;88.30
15386;DHT22;7791;47.246;9.648;2024-02-16T14:29:51;19.90;87.20
15386;DHT22;7791;47.246;9.648;2024-02-16T14:32:31;19.60;88.40
15386;DHT22;7791;47.246;9.648;2024-02-16T14:35:12;19.20;90.50
15386;DHT22;7791;47.246;9.648;2024-02-16T14:37:58;19.20;90.70
15386;DHT22;7791;47.246;9.648;2024-02-16T14:40:34;19.20;90.30
15386;DHT22;7791;47.246;9.648;2024-02-16T14:43:33;19.00;90.50
15386;DHT22;7791;47.246;9.648;2024-02-16T14:48:59;18.30;91.70
15386;DHT22;7791;47.246;9.648;2024-02-16T14:51:31;18.20;92.60
15386;DHT22;7791;47.246;9.648;2024-02-16T14:54:09;18.00;92.70
15386;DHT22;7791;47.246;9.648;2024-02-16T14:57:01;17.90;92.70
15386;DHT22;7791;47.246;9.648;2024-02-16T14:59:50;17.90;93.10
15386;DHT22;7791;47.246;9.648;2024-02-16T15:02:51;17.80;92.80
15386;DHT22;7791;47.246;9.648;2024-02-16T15:05:27;17.70;93.20
15386;DHT22;7791;47.246;9.648;2024-02-16T15:08:05;17.80;94.00
15386;DHT22;7791;47.246;9.648;2024-02-16T15:10:53;17.80;93.60
15386;DHT22;7791;47.246;9.648;2024-02-16T15:16:23;17.70;94.20
15386;DHT22;7791;47.246;9.648;2024-02-16T15:19:07;17.70;94.50
15386;DHT22;7791;47.246;9.648;2024-02-16T15:21:49;17.70;95.10
15386;DHT22;7791;47.246;9.648;2024-02-16T15:24:25;17.70;94.40
15386;DHT22;7791;47.246;9.648;2024-02-16T15:27:07;17.70;94.60
15386;DHT22;7791;47.246;9.648;2024-02-16T15:29:43;17.60;95.10
15386;DHT22;7791;47.246;9.648;2024-02-16T15:32:28;17.50;95.30
15386;DHT22;7791;47.246;9.648;2024-02-16T15:35:21;17.60;95.40
15386;DHT22;7791;47.246;9.648;2024-02-16T15:38:18;17.60;95.30
15386;DHT22;7791;47.246;9.648;2024-02-16T15:40:49;17.60;95.70
15386;DHT22;7791;47.246;9.648;2024-02-16T15:43:36;17.50;96.10
15386;DHT22;7791;47.246;9.648;2024-02-16T15:49:06;17.40;96.50
15386;DHT22;7791;47.246;9.648;2024-02-16T15:54:54;17.10;98.00
15386;DHT22;7791;47.246;9.648;2024-02-16T16:00:26;16.90;98.90
15386;DHT22;7791;47.246;9.648;2024-02-16T16:03:14;16.70;98.80
15386;DHT22;7791;47.246;9.648;2024-02-16T16:06:07;16.70;98.80
15386;DHT22;7791;47.246;9.648;2024-02-16T16:08:51;16.50;98.90
15386;DHT22;7791;47.246;9.648;2024-02-16T16:17:19;16.10;99.60
15386;DHT22;7791;47.246;9.648;2024-02-16T16:20:01;16.00;99.90
15386;DHT22;7791;47.246;9.648;2024-02-16T16:22:45;15.80;99.90
15386;DHT22;7791;47.246;9.648;2024-02-16T16:25:25;15.60;99.90
15386;DHT22;7791;47.246;9.648;2024-02-16T16:28:42;15.30;99.90
15386;DHT22;7791;47.246;9.648;2024-02-16T16:30:56;15.00;99.90
15386;DHT22;7791;47.246;9.648;2024-02-16T16:33:46;14.80;99.90
15386;DHT22;7791;47.246;9.648;2024-02-16T16:36:25;14.60;99.90
15386;DHT22;7791;47.246;9.648;2024-02-16T16:39:16;14.30;99.90
15386;DHT22;7791;47.246;9.648;2024-02-16T16:44:54;14.00;99.90
15386;DHT22;7791;47.246;9.648;2024-02-16T16:53:18;13.50;99.90
15386;DHT22;7791;47.246;9.648;2024-02-16T16:58:37;13.20;99.90
15386;DHT22;7791;47.246;9.648;2024-02-16T17:01:22;13.00;99.90
15386;DHT22;7791;47.246;9.648;2024-02-16T17:04:02;12.80;99.90
15386;DHT22;7791;47.246;9.648;2024-02-16T17:09:31;12.30;99.90
15386;DHT22;7791;47.246;9.648;2024-02-16T17:12:11;12.20;99.90
15386;DHT22;7791;47.246;9.648;2024-02-16T17:14:42;12.10;99.90
15386;DHT22;7791;47.246;9.648;2024-02-16T17:17:18;11.80;99.90
15386;DHT22;7791;47.246;9.648;2024-02-16T17:19:57;11.70;99.90
15386;DHT22;7791;47.246;9.648;2024-02-16T17:22:33;11.70;99.90
15386;DHT22;7791;47.246;9.648;2024-02-16T17:25:13;11.70;99.90
15386;DHT22;7791;47.246;9.648;2024-02-16T17:27:53;11.70;99.90
15386;DHT22;7791;47.246;9.648;2024-02-16T17:30:33;11.70;99.90
15386;DHT22;7791;47.246;9.648;2024-02-16T17:33:10;11.60;99.90
15386;DHT22;7791;47.246;9.648;2024-02-16T17:35:46;11.60;99.90
15386;DHT22;7791;47.246;9.648;2024-02-16T17:38:19;11.50;99.90
15386;DHT22;7791;47.246;9.648;2024-02-16T17:40:59;11.50;99.90
15386;DHT22;7791;47.246;9.648;2024-02-16T17:43:38;11.60;99.90
15386;DHT22;7791;47.246;9.648;2024-02-16T17:46:19;11.60;99.90
15386;DHT22;7791;47.246;9.648;2024-02-16T17:48:47;11.60;99.90
15386;DHT22;7791;47.246;9.648;2024-02-16T17:51:39;11.60;99.90
15386;DHT22;7791;47.246;9.648;2024-02-16T17:54:18;11.60;99.90
15386;DHT22;7791;47.246;9.648;2024-02-16T17:57:04;11.60;99.90
15386;DHT22;7791;47.246;9.648;2024-02-16T17:59:39;11.60;99.90
15386;DHT22;7791;47.246;9.648;2024-02-16T18:02:19;11.40;99.90
15386;DHT22;7791;47.246;9.648;2024-02-16T18:04:48;11.50;99.90
15386;DHT22;7791;47.246;9.648;2024-02-16T18:07:24;11.50;99.90
15386;DHT22;7791;47.246;9.648;2024-02-16T18:10:03;11.50;99.90
15386;DHT22;7791;47.246;9.648;2024-02-16T18:15:29;11.50;99.90
15386;DHT22;7791;47.246;9.648;2024-02-16T18:18:12;11.60;99.90
15386;DHT22;7791;47.246;9.648;2024-02-16T18:20:48;11.60;99.90
15386;DHT22;7791;47.246;9.648;2024-02-16T18:23:41;11.70;99.90
15386;DHT22;7791;47.246;9.648;2024-02-16T18:26:29;11.70;99.90
15386;DHT22;7791;47.246;9.648;2024-02-16T18:29:10;11.60;99.90
15386;DHT22;7791;47.246;9.648;2024-02-16T18:31:40;11.40;99.90
15386;DHT22;7791;47.246;9.648;2024-02-16T18:34:37;11.50;99.90
15386;DHT22;7791;47.246;9.648;2024-02-16T18:37:15;11.50;99.90
15386;DHT22;7791;47.246;9.648;2024-02-16T18:40:01;11.50;99.90
15386;DHT22;7791;47.246;9.648;2024-02-16T18:42:58;11.50;99.90
15386;DHT22;7791;47.246;9.648;2024-02-16T18:48:50;11.40;99.90
15386;DHT22;7791;47.246;9.648;2024-02-16T18:51:25;11.20;99.90
15386;DHT22;7791;47.246;9.648;2024-02-16T18:54:25;11.20;99.90
15386;DHT22;7791;47.246;9.648;2024-02-16T18:57:03;11.40;99.90
15386;DHT22;7791;47.246;9.648;2024-02-16T18:59:41;11.40;99.90
15386;DHT22;7791;47.246;9.648;2024-02-16T19:02:29;11.60;99.90
15386;DHT22;7791;47.246;9.648;2024-02-16T19:05:10;11.60;99.90
15386;DHT22;7791;47.246;9.648;2024-02-16T19:10:44;11.60;99.90
15386;DHT22;7791;47.246;9.648;2024-02-16T19:13:24;11.60;99.90
15386;DHT22;7791;47.246;9.648;2024-02-16T19:16:21;11.60;99.90
15386;DHT22;7791;47.246;9.648;2024-02-16T19:19:00;11.60;99.90
15386;DHT22;7791;47.246;9.648;2024-02-16T19:24:36;11.30;99.90
15386;DHT22;7791;47.246;9.648;2024-02-16T19:27:15;11.30;99.90
15386;DHT22;7791;47.246;9.648;2024-02-16T19:29:55;11.40;99.90
15386;DHT22;7791;47.246;9.648;2024-02-16T19:32:45;11.40;99.90
15386;DHT22;7791;47.246;9.648;2024-02-16T19:35:23;11.30;99.90
15386;DHT22;7791;47.246;9.648;2024-02-16T19:37:58;11.40;99.90
15386;DHT22;7791;47.246;9.648;2024-02-16T19:40:30;11.30;99.90
15386;DHT22;7791;47.246;9.648;2024-02-16T19:43:13;11.30;99.90
15386;DHT22;7791;47.246;9.648;2024-02-16T19:45:48;11.30;99.90
15386;DHT22;7791;47.246;9.648;2024-02-16T19:48:26;11.20;99.90
15386;DHT22;7791;47.246;9.648;2024-02-16T19:50:55;11.00;99.90
15386;DHT22;7791;47.246;9.648;2024-02-16T19:53:34;11.00;99.90
15386;DHT22;7791;47.246;9.648;2024-02-16T19:56:32;11.10;99.90
15386;DHT22;7791;47.246;9.648;2024-02-16T19:59:04;11.20;99.90
15386;DHT22;7791;47.246;9.648;2024-02-16T20:01:39;11.30;99.90
15386;DHT22;7791;47.246;9.648;2024-02-16T20:04:13;11.40;99.90
15386;DHT22;7791;47.246;9.648;2024-02-16T20:06:49;11.50;99.90
15386;DHT22;7791;47.246;9.648;2024-02-16T20:09:40;11.50;99.90
15386;DHT22;7791;47.246;9.648;2024-02-16T20:12:17;11.50;99.90
15386;DHT22;7791;47.246;9.648;2024-02-16T20:14:56;11.50;99.90
15386;DHT22;7791;47.246;9.648;2024-02-16T20:17:27;11.50;99.90
15386;DHT22;7791;47.246;9.648;2024-02-16T20:20:15;11.50;99.90
15386;DHT22;7791;47.246;9.648;2024-02-16T20:22:50;11.50;99.90
15386;DHT22;7791;47.246;9.648;2024-02-16T20:25:54;11.50;99.90